createdAt,value
2023-03-04T00:04:03.101Z,2.77
2023-03-04T00:08:06.207Z,2.76
2023-03-04T00:12:09.640Z,2.73
2023-03-04T00:16:14.268Z,2.71
2023-03-04T00:20:17.384Z,2.72
2023-03-04T00:24:20.362Z,2.70
2023-03-04T00:28:23.484Z,2.70
2023-03-04T00:32:27.953Z,2.64
2023-03-04T00:36:31.690Z,2.58
2023-03-04T00:40:34.935Z,2.58
2023-03-04T00:44:38.513Z,2.57
2023-03-04T00:48:42.960Z,2.55
2023-03-04T00:52:46.160Z,2.49
2023-03-04T00:56:49.409Z,2.50
2023-03-04T01:00:53.307Z,2.50
2023-03-04T01:04:57.762Z,2.48
2023-03-04T01:09:00.801Z,2.47
2023-03-04T01:13:04.298Z,2.46
2023-03-04T01:17:07.394Z,2.42
2023-03-04T01:21:12.673Z,2.36
2023-03-04T01:25:15.893Z,2.28
2023-03-04T01:29:19.021Z,2.21
2023-03-04T01:33:22.757Z,2.15
2023-03-04T01:37:27.833Z,2.11
2023-03-04T01:41:31.057Z,2.08
2023-03-04T01:45:39.145Z,2.07
2023-03-04T01:49:45.003Z,2.04
2023-03-04T01:53:53.418Z,2.00
2023-03-04T01:57:57.447Z,1.93
2023-03-04T02:02:01.796Z,1.88
2023-03-04T02:06:06.698Z,1.79
2023-03-04T02:10:14.023Z,1.73
2023-03-04T02:14:26.583Z,1.69
2023-03-04T02:18:29.554Z,1.63
2023-03-04T02:22:34.129Z,1.55
2023-03-04T02:26:41.382Z,1.51
2023-03-04T02:30:44.646Z,1.44
2023-03-04T02:34:49.715Z,1.39
2023-03-04T02:38:55.584Z,1.36
2023-03-04T02:43:01.637Z,1.35
2023-03-04T02:47:07.061Z,1.31
2023-03-04T02:51:10.425Z,1.30
2023-03-04T02:55:13.608Z,1.29
2023-03-04T02:59:18.575Z,1.27
2023-03-04T03:03:21.642Z,1.23
2023-03-04T03:07:24.740Z,1.19
2023-03-04T03:11:28.417Z,1.16
2023-03-04T03:15:33.512Z,1.13
2023-03-04T03:19:36.710Z,1.10
2023-03-04T03:23:43.367Z,1.08
2023-03-04T03:27:46.516Z,1.01
2023-03-04T03:31:51.663Z,1.00
2023-03-04T03:35:57.430Z,0.97
2023-03-04T03:40:00.936Z,0.93
2023-03-04T03:44:04.038Z,0.91
2023-03-04T03:48:19.708Z,0.86
2023-03-04T03:52:24.149Z,0.85
2023-03-04T03:56:27.153Z,0.76
2023-03-04T04:00:30.307Z,0.71
2023-03-04T04:04:33.443Z,0.69
2023-03-04T04:08:37.900Z,0.69
2023-03-04T04:12:41.128Z,0.70
2023-03-04T04:16:44.226Z,0.72
2023-03-04T04:20:47.731Z,0.73
2023-03-04T04:24:52.134Z,0.75
2023-03-04T04:28:55.160Z,0.77
2023-03-04T04:33:01.634Z,0.75
2023-03-04T04:37:04.597Z,0.74
2023-03-04T04:41:19.667Z,0.74
2023-03-04T04:45:22.676Z,0.70
2023-03-04T04:49:25.726Z,0.68
2023-03-04T04:53:28.800Z,0.63
2023-03-04T04:57:34.289Z,0.62
2023-03-04T05:01:37.685Z,0.59
2023-03-04T05:05:41.004Z,0.55
2023-03-04T05:09:43.971Z,0.52
2023-03-04T05:13:49.333Z,0.49
2023-03-04T05:17:52.343Z,0.44
2023-03-04T05:21:55.390Z,0.41
2023-03-04T05:25:58.378Z,0.36
2023-03-04T05:30:02.867Z,0.36
2023-03-04T05:34:05.941Z,0.31
2023-03-04T05:38:11.833Z,0.28
2023-03-04T05:42:14.817Z,0.30
2023-03-04T05:46:25.409Z,0.30
2023-03-04T05:50:28.546Z,0.34
2023-03-04T05:54:31.810Z,0.38
2023-03-04T05:58:34.796Z,0.39
2023-03-04T06:02:39.373Z,0.39
2023-03-04T06:06:42.675Z,0.40
2023-03-04T06:10:45.748Z,0.39
2023-03-04T06:14:48.813Z,0.40
2023-03-04T06:18:53.253Z,0.43
2023-03-04T06:22:56.238Z,0.45
2023-03-04T06:26:59.533Z,0.49
2023-03-04T06:31:02.538Z,0.47
2023-03-04T06:35:08.024Z,0.47
2023-03-04T06:39:11.490Z,0.49
2023-03-04T06:43:14.571Z,0.70
2023-03-04T06:47:18.835Z,0.75
2023-03-04T06:51:23.395Z,0.80
2023-03-04T06:55:26.416Z,0.84
2023-03-04T06:59:29.497Z,0.87
2023-03-04T07:03:32.458Z,0.99
2023-03-04T07:07:37.417Z,1.40
2023-03-04T07:11:40.648Z,1.85
2023-03-04T07:15:43.730Z,2.30
2023-03-04T07:19:46.720Z,2.65
2023-03-04T07:23:51.182Z,2.96
2023-03-04T07:27:54.175Z,3.26
2023-03-04T07:31:57.483Z,3.51
2023-03-04T07:36:00.802Z,3.75
2023-03-04T07:40:08.173Z,4.00
2023-03-04T07:44:13.607Z,4.22
2023-03-04T07:48:16.715Z,4.40
2023-03-04T07:52:19.730Z,4.60
2023-03-04T07:56:26.281Z,4.81
2023-03-04T08:00:29.253Z,4.97
2023-03-04T08:04:32.375Z,5.11
2023-03-04T08:08:35.789Z,5.33
2023-03-04T08:12:40.295Z,5.45
2023-03-04T08:16:43.351Z,5.57
2023-03-04T08:20:46.406Z,5.69
2023-03-04T08:24:49.370Z,5.83
2023-03-04T08:28:55.007Z,5.98
2023-03-04T08:32:58.010Z,6.12
2023-03-04T08:37:01.108Z,6.22
2023-03-04T08:41:04.858Z,6.33
2023-03-04T08:45:10.234Z,6.41
2023-03-04T08:49:14.526Z,6.49
2023-03-04T08:53:18.867Z,6.62
2023-03-04T08:57:21.848Z,6.72
2023-03-04T09:01:26.312Z,6.76
2023-03-04T09:05:29.276Z,6.88
2023-03-04T09:09:33.208Z,7.00
2023-03-04T09:13:37.843Z,7.08
2023-03-04T09:17:42.818Z,7.15
2023-03-04T09:21:45.813Z,7.19
2023-03-04T09:25:49.730Z,7.28
2023-03-04T09:29:52.718Z,7.34
2023-03-04T09:33:59.377Z,7.43
2023-03-04T09:38:02.639Z,7.56
2023-03-04T09:42:08.800Z,7.69
2023-03-04T09:46:16.014Z,7.82
2023-03-04T09:50:21.674Z,7.93
2023-03-04T09:54:43.474Z,8.05
2023-03-04T09:58:58.484Z,8.15
2023-03-04T10:03:11.504Z,8.26
2023-03-04T10:07:20.203Z,8.39
2023-03-04T10:11:28.282Z,8.51
2023-03-04T10:15:36.434Z,8.61
2023-03-04T10:19:52.272Z,8.66
2023-03-04T10:23:59.357Z,8.74
2023-03-04T10:28:05.679Z,8.79
2023-03-04T10:32:13.491Z,8.90
2023-03-04T10:36:37.002Z,8.95
2023-03-04T10:40:44.562Z,9.08
2023-03-04T10:44:54.091Z,9.09
2023-03-04T10:48:57.165Z,9.09
2023-03-04T10:53:00.416Z,9.05
2023-03-04T10:57:06.881Z,9.08
2023-03-04T11:01:17.628Z,9.09
2023-03-04T11:05:23.036Z,9.13
2023-03-04T11:09:28.107Z,9.19
2023-03-04T11:13:33.655Z,9.20
2023-03-04T11:17:46.468Z,9.22
2023-03-04T11:21:50.652Z,9.29
2023-03-04T11:26:00.113Z,9.32
2023-03-04T11:30:23.117Z,9.34
2023-03-04T11:34:35.173Z,9.38
2023-03-04T11:38:43.308Z,9.45
2023-03-04T11:42:52.177Z,9.53
2023-03-04T11:47:13.985Z,9.54
2023-03-04T11:51:24.082Z,9.66
2023-03-04T11:55:35.565Z,9.73
2023-03-04T11:59:56.961Z,9.90
2023-03-04T12:04:16.526Z,9.87
2023-03-04T12:08:45.917Z,9.92
2023-03-04T12:13:03.184Z,10.04
2023-03-04T12:17:30.569Z,10.10
2023-03-04T12:21:55.792Z,10.18
2023-03-04T12:26:08.004Z,10.21
2023-03-04T12:30:27.561Z,10.33
2023-03-04T12:34:53.668Z,10.29
2023-03-04T12:39:34.657Z,10.24
2023-03-04T12:43:47.763Z,10.25
2023-03-04T12:48:01.709Z,10.27
2023-03-04T12:52:16.365Z,10.30
2023-03-04T12:56:27.899Z,10.30
2023-03-04T13:00:43.026Z,10.38
2023-03-04T13:04:58.759Z,10.42
2023-03-04T13:09:11.756Z,10.43
2023-03-04T13:13:39.446Z,10.39
2023-03-04T13:17:44.899Z,10.36
2023-03-04T13:21:50.638Z,10.25
2023-03-04T13:26:18.573Z,10.26
2023-03-04T13:30:42.627Z,10.28
2023-03-04T13:34:51.811Z,10.36
2023-03-04T13:39:03.840Z,10.42
2023-03-04T13:43:27.066Z,10.40
2023-03-04T13:47:48.828Z,10.42
2023-03-04T13:51:52.800Z,10.42
2023-03-04T13:56:24.056Z,10.33
2023-03-04T14:00:27.752Z,10.22
2023-03-04T14:04:38.380Z,10.21
2023-03-04T14:08:41.363Z,10.15
2023-03-04T14:12:47.648Z,10.13
2023-03-04T14:16:53.563Z,9.94
2023-03-04T14:21:01.813Z,9.68
2023-03-04T14:25:07.788Z,9.43
2023-03-04T14:29:25.600Z,9.13
2023-03-04T14:33:30.756Z,8.80
2023-03-04T14:37:44.139Z,8.48
2023-03-04T14:41:49.022Z,8.33
2023-03-04T14:45:54.624Z,8.20
2023-03-04T14:49:57.970Z,8.12
2023-03-04T14:54:02.466Z,7.91
2023-03-04T14:58:10.749Z,7.77
2023-03-04T15:02:30.992Z,7.67
2023-03-04T15:06:36.474Z,7.53
2023-03-04T15:10:41.133Z,7.41
2023-03-04T15:14:45.790Z,7.33
2023-03-04T15:18:56.642Z,7.26
2023-03-04T15:23:02.926Z,7.15
2023-03-04T15:27:11.374Z,7.08
2023-03-04T15:31:18.118Z,6.99
2023-03-04T15:35:22.020Z,6.93
2023-03-04T15:39:26.412Z,6.79
2023-03-04T15:43:30.931Z,6.71
2023-03-04T15:47:33.892Z,6.61
2023-03-04T15:51:37.294Z,6.48
2023-03-04T15:55:40.560Z,6.36
2023-03-04T15:59:44.997Z,6.29
2023-03-04T16:03:47.992Z,6.18
2023-03-04T16:07:52.523Z,6.09
2023-03-04T16:12:01.683Z,5.97
2023-03-04T16:16:06.825Z,5.83
2023-03-04T16:20:11.604Z,5.71
2023-03-04T16:24:19.002Z,5.66
2023-03-04T16:28:22.400Z,5.57
2023-03-04T16:32:26.904Z,5.52
2023-03-04T16:36:30.689Z,5.41
2023-03-04T16:40:34.179Z,5.34
2023-03-04T16:44:37.147Z,5.27
2023-03-04T16:48:42.356Z,5.13
2023-03-04T16:52:47.042Z,5.06
2023-03-04T16:56:50.138Z,4.96
2023-03-04T17:00:53.150Z,4.90
2023-03-04T17:04:59.380Z,4.83
2023-03-04T17:09:02.405Z,4.74
2023-03-04T17:13:05.994Z,4.66
2023-03-04T17:17:09.236Z,4.60
2023-03-04T17:21:16.271Z,4.50
2023-03-04T17:25:19.717Z,4.41
2023-03-04T17:29:22.932Z,4.37
2023-03-04T17:33:25.936Z,4.34
2023-03-04T17:37:30.363Z,4.36
2023-03-04T17:41:35.723Z,4.38
2023-03-04T17:45:39.303Z,4.23
2023-03-04T17:49:42.418Z,4.16
2023-03-04T17:53:46.854Z,4.15
2023-03-04T17:57:52.871Z,4.07
2023-03-04T18:01:55.985Z,3.95
2023-03-04T18:05:59.074Z,3.93
2023-03-04T18:10:03.580Z,3.91
2023-03-04T18:14:06.952Z,3.85
2023-03-04T18:18:10.057Z,3.81
2023-03-04T18:22:13.335Z,3.79
2023-03-04T18:26:21.054Z,3.70
2023-03-04T18:30:27.295Z,3.64
2023-03-04T18:34:30.399Z,3.58
2023-03-04T18:38:33.880Z,3.49
2023-03-04T18:42:38.609Z,3.44
2023-03-04T18:46:45.189Z,3.40
2023-03-04T18:50:48.478Z,3.32
2023-03-04T18:54:51.537Z,3.27
2023-03-04T18:58:56.183Z,3.22
2023-03-04T19:03:02.270Z,3.22
2023-03-04T19:07:05.400Z,3.18
2023-03-04T19:11:08.386Z,3.16
2023-03-04T19:15:13.769Z,3.10
2023-03-04T19:19:16.752Z,3.07
2023-03-04T19:23:19.823Z,3.06
2023-03-04T19:27:23.276Z,3.05
2023-03-04T19:31:28.007Z,3.01
2023-03-04T19:35:32.479Z,2.97
2023-03-04T19:39:35.645Z,2.96
2023-03-04T19:43:39.597Z,2.95
2023-03-04T19:47:44.210Z,2.93
2023-03-04T19:51:47.206Z,2.90
2023-03-04T19:55:50.667Z,2.88
2023-03-04T19:59:53.707Z,2.86
2023-03-04T20:04:00.006Z,2.84
2023-03-04T20:08:03.171Z,2.84
2023-03-04T20:12:06.935Z,2.86
2023-03-04T20:16:10.871Z,2.83
2023-03-04T20:20:16.489Z,2.84
2023-03-04T20:24:23.002Z,2.85
2023-03-04T20:28:27.154Z,2.81
2023-03-04T20:32:30.226Z,2.79
2023-03-04T20:36:35.961Z,2.76
2023-03-04T20:40:40.462Z,2.76
2023-03-04T20:44:43.522Z,2.74
2023-03-04T20:48:46.514Z,2.72
2023-03-04T20:52:51.068Z,2.71
2023-03-04T20:56:54.048Z,2.69
2023-03-04T21:00:57.141Z,2.69
2023-03-04T21:05:01.346Z,2.67
2023-03-04T21:09:07.679Z,2.64
2023-03-04T21:13:16.541Z,2.68
2023-03-04T21:17:19.690Z,2.74
2023-03-04T21:21:24.284Z,2.75
2023-03-04T21:25:28.784Z,2.71
2023-03-04T21:29:32.140Z,2.76
2023-03-04T21:33:37.038Z,2.81
2023-03-04T21:37:41.692Z,2.86
2023-03-04T21:41:46.610Z,2.88
2023-03-04T21:45:54.376Z,2.91
2023-03-04T21:49:57.426Z,2.93
2023-03-04T21:54:00.434Z,2.92
2023-03-04T21:58:04.923Z,2.93
2023-03-04T22:02:08.589Z,2.92
2023-03-04T22:06:13.085Z,2.84
2023-03-04T22:10:16.358Z,2.78
2023-03-04T22:14:20.805Z,2.70
2023-03-04T22:18:23.816Z,2.64
2023-03-04T22:22:28.054Z,2.60
2023-03-04T22:26:32.590Z,2.55
2023-03-04T22:30:37.585Z,2.47
2023-03-04T22:34:40.880Z,2.44
2023-03-04T22:38:44.766Z,2.43
2023-03-04T22:42:48.904Z,2.39
2023-03-04T22:46:53.423Z,2.40
2023-03-04T22:50:56.428Z,2.35
2023-03-04T22:55:02.179Z,2.35
2023-03-04T22:59:05.136Z,2.36
2023-03-04T23:03:10.393Z,2.34
2023-03-04T23:07:13.340Z,2.33
2023-03-04T23:11:19.450Z,2.34
2023-03-04T23:15:22.824Z,2.36
2023-03-04T23:19:27.280Z,2.32
2023-03-04T23:23:30.269Z,2.34
2023-03-04T23:27:33.335Z,2.32
2023-03-04T23:31:36.920Z,2.29
2023-03-04T23:35:41.386Z,2.30
2023-03-04T23:39:44.599Z,2.27
2023-03-04T23:43:48.322Z,2.32
2023-03-04T23:47:51.377Z,2.27
2023-03-04T23:51:55.981Z,2.28
2023-03-04T23:55:58.947Z,2.24
